Hilltop, Minnesota
Current Conditions -  °F | °C
As of 5:53 AM on Wednesday 28 Jan 2015 (Local Time) from KMIC Reporting Station
Overcast Overcast  
Wind Chill: 19°   Ceiling: 900
Heat Index: 30°   Visibility: 7mi
Dew Point: 26°   Wind: 15mph
Humidity: 85%   Direction: 140°SE
Pressure: 30.01"   Gusts: NA
Location:  45.0516°N, 93.2549°W
Report Text: KMIC 281153Z AUTO 14013KT 7SM OVC009 M01/M03 A3001 RMK AO2 SLP171 T10111033 10000 21011 56016
Loading
Personal Weather Stations






























Interactive Weather Map New forecast layout! Learn more

10-Day Weather Forecast

Advertisements
Track Severe Weather on mobile